createdAt,value
2022-12-23T00:00:38.493Z,7.60
2022-12-23T00:03:05.307Z,7.60
2022-12-23T00:05:38.302Z,7.60
2022-12-23T00:08:06.879Z,7.60
2022-12-23T00:10:35.119Z,7.60
2022-12-23T00:13:20.651Z,7.70
2022-12-23T00:15:47.259Z,7.70
2022-12-23T00:18:14.555Z,7.70
2022-12-23T00:20:41.130Z,7.70
2022-12-23T00:23:08.141Z,7.70
2022-12-23T00:25:40.618Z,7.70
2022-12-23T00:28:11.753Z,7.70
2022-12-23T00:30:48.208Z,7.70
2022-12-23T00:33:16.813Z,7.70
2022-12-23T00:35:45.103Z,7.70
2022-12-23T00:38:12.375Z,7.70
2022-12-23T00:40:57.622Z,7.70
2022-12-23T00:43:24.392Z,7.70
2022-12-23T00:45:51.129Z,7.70
2022-12-23T00:48:36.877Z,7.70
2022-12-23T00:51:03.681Z,7.70
2022-12-23T00:53:30.367Z,7.70
2022-12-23T00:55:57.030Z,7.70
2022-12-23T00:58:23.638Z,7.70
2022-12-23T01:01:09.206Z,7.70
2022-12-23T01:03:54.575Z,7.70
2022-12-23T01:06:21.193Z,7.70
2022-12-23T01:08:49.067Z,7.70
2022-12-23T01:11:15.726Z,7.70
2022-12-23T01:13:42.499Z,7.70
2022-12-23T01:16:16.877Z,7.70
2022-12-23T01:18:44.706Z,7.70
2022-12-23T01:21:13.371Z,7.70
2022-12-23T01:23:40.538Z,7.70
2022-12-23T01:26:08.477Z,7.70
2022-12-23T01:28:36.217Z,7.70
2022-12-23T01:31:05.006Z,7.80
2022-12-23T01:33:33.153Z,7.70
2022-12-23T01:36:04.505Z,7.70
2022-12-23T01:38:31.214Z,7.70
2022-12-23T01:40:58.108Z,7.80
2022-12-23T01:43:45.417Z,7.70
2022-12-23T01:46:12.531Z,7.70
2022-12-23T01:48:41.674Z,7.70
2022-12-23T01:51:19.117Z,7.70
2022-12-23T01:53:50.603Z,7.70
2022-12-23T01:56:25.210Z,7.70
2022-12-23T01:59:02.214Z,7.70
2022-12-23T02:01:49.023Z,7.70
2022-12-23T02:07:03.696Z,7.70
2022-12-23T02:09:35.459Z,7.70
2022-12-23T02:12:21.502Z,7.70
2022-12-23T02:15:31.701Z,7.80
2022-12-23T02:18:27.803Z,7.70
2022-12-23T02:21:36.219Z,7.70
2022-12-23T02:24:02.840Z,7.70
2022-12-23T02:26:56.621Z,7.70
2022-12-23T02:29:54.104Z,7.70
2022-12-23T02:32:45.576Z,7.70
2022-12-23T02:35:31.499Z,7.70
2022-12-23T02:38:31.965Z,7.80
2022-12-23T02:41:34.369Z,7.70
2022-12-23T02:44:11.687Z,7.70
2022-12-23T02:46:51.566Z,7.80
2022-12-23T02:49:32.311Z,7.70
2022-12-23T02:52:04.876Z,7.70
2022-12-23T02:54:38.358Z,7.70
2022-12-23T02:57:07.578Z,7.70
2022-12-23T02:59:40.246Z,7.70
2022-12-23T03:02:07.167Z,7.70
2022-12-23T03:04:33.932Z,7.70
2022-12-23T03:07:07.474Z,7.70
2022-12-23T03:09:45.427Z,7.70
2022-12-23T03:12:46.549Z,7.70
2022-12-23T03:15:27.149Z,7.60
2022-12-23T03:18:03.971Z,7.70
2022-12-23T03:21:01.885Z,7.60
2022-12-23T03:23:57.661Z,7.70
2022-12-23T03:26:32.858Z,7.60
2022-12-23T03:29:24.457Z,7.60
2022-12-23T03:31:55.238Z,7.60
2022-12-23T03:34:26.917Z,7.50
2022-12-23T03:36:57.634Z,7.60
2022-12-23T03:39:49.110Z,7.60
2022-12-23T03:42:28.117Z,7.60
2022-12-23T03:45:36.500Z,7.60
2022-12-23T03:47:51.943Z,7.60
2022-12-23T03:50:20.292Z,7.60
2022-12-23T03:53:00.112Z,7.60
2022-12-23T03:55:36.581Z,7.50
2022-12-23T03:58:24.708Z,7.60
2022-12-23T04:01:01.024Z,7.60
2022-12-23T04:03:45.795Z,7.60
2022-12-23T04:06:17.462Z,7.60
2022-12-23T04:08:46.310Z,7.60
2022-12-23T04:11:13.098Z,7.60
2022-12-23T04:13:39.872Z,7.60
2022-12-23T04:16:07.623Z,7.60
2022-12-23T04:18:34.350Z,7.50
2022-12-23T04:21:01.063Z,7.50
2022-12-23T04:23:27.769Z,7.60
2022-12-23T04:25:54.395Z,7.60
2022-12-23T04:28:21.167Z,7.60
2022-12-23T04:30:48.053Z,7.60
2022-12-23T04:33:14.665Z,7.60
2022-12-23T04:35:41.312Z,7.50
2022-12-23T04:38:08.009Z,7.50
2022-12-23T04:40:34.811Z,7.40
2022-12-23T04:43:01.526Z,7.40
2022-12-23T04:45:28.181Z,7.40
2022-12-23T04:47:55.182Z,7.40
2022-12-23T04:50:21.821Z,7.30
2022-12-23T04:52:48.582Z,7.30
2022-12-23T04:55:15.250Z,7.40
2022-12-23T04:57:41.949Z,7.30
2022-12-23T05:00:09.689Z,7.30
2022-12-23T05:02:36.418Z,7.30
2022-12-23T05:05:03.740Z,7.30
2022-12-23T05:07:31.224Z,7.30
2022-12-23T05:10:02.059Z,7.20
2022-12-23T05:12:30.691Z,7.20
2022-12-23T05:14:57.443Z,7.20
2022-12-23T05:17:24.331Z,7.20
2022-12-23T05:19:51.205Z,7.10
2022-12-23T05:22:18.073Z,7.10
2022-12-23T05:24:44.790Z,7.10
2022-12-23T05:27:11.439Z,7.10
2022-12-23T05:29:38.214Z,7.10
2022-12-23T05:32:05.086Z,7.00
2022-12-23T05:34:31.804Z,7.00
2022-12-23T05:36:58.430Z,7.00
2022-12-23T05:39:25.105Z,7.00
2022-12-23T05:41:51.700Z,7.10
2022-12-23T05:44:18.613Z,7.00
2022-12-23T05:46:45.440Z,7.00
2022-12-23T05:49:12.800Z,7.00
2022-12-23T05:51:39.430Z,7.00
2022-12-23T05:54:06.114Z,7.00
2022-12-23T05:56:32.753Z,7.00
2022-12-23T05:59:00.190Z,6.90
2022-12-23T06:01:26.844Z,6.90
2022-12-23T06:03:53.728Z,6.90
2022-12-23T06:06:20.494Z,6.80
2022-12-23T06:08:47.036Z,6.80
2022-12-23T06:11:13.818Z,6.80
2022-12-23T06:13:40.438Z,6.80
2022-12-23T06:16:07.461Z,6.80
2022-12-23T06:18:34.298Z,6.80
2022-12-23T06:21:00.922Z,6.80
2022-12-23T06:23:27.594Z,6.80
2022-12-23T06:26:01.649Z,6.80
2022-12-23T06:28:29.307Z,6.80
2022-12-23T06:30:57.191Z,6.70
2022-12-23T06:33:24.749Z,6.70
2022-12-23T06:35:51.563Z,6.60
2022-12-23T06:38:18.294Z,6.50
2022-12-23T06:40:46.191Z,6.60
2022-12-23T06:43:13.468Z,6.60
2022-12-23T06:45:41.025Z,6.60
2022-12-23T06:48:07.779Z,6.60
2022-12-23T06:50:34.401Z,6.60
2022-12-23T06:53:01.209Z,6.60
2022-12-23T06:55:27.973Z,6.70
2022-12-23T06:57:54.718Z,6.60
2022-12-23T07:00:21.882Z,6.60
2022-12-23T07:02:49.145Z,6.60
2022-12-23T07:05:16.976Z,6.60
2022-12-23T07:07:43.707Z,6.90
2022-12-23T07:10:10.463Z,6.70
2022-12-23T07:12:37.635Z,6.70
2022-12-23T07:15:05.440Z,6.70
2022-12-23T07:17:32.425Z,6.70
2022-12-23T07:19:59.359Z,6.70
2022-12-23T07:22:26.617Z,6.70
2022-12-23T07:24:53.211Z,6.70
2022-12-23T07:27:19.983Z,6.70
2022-12-23T07:29:46.603Z,6.70
2022-12-23T07:32:13.390Z,6.60
2022-12-23T07:34:40.073Z,6.70
2022-12-23T07:37:06.843Z,6.70
2022-12-23T07:39:34.513Z,6.70
2022-12-23T07:42:33.866Z,6.70
2022-12-23T07:44:47.839Z,6.70
2022-12-23T07:47:16.803Z,6.70
2022-12-23T07:49:43.448Z,6.60
2022-12-23T07:52:10.096Z,6.60
2022-12-23T07:54:36.745Z,6.60
2022-12-23T07:57:03.395Z,6.70
2022-12-23T07:59:30.073Z,6.70
2022-12-23T08:01:57.006Z,6.70
2022-12-23T08:04:23.961Z,6.70
2022-12-23T08:06:50.973Z,6.70
2022-12-23T08:09:17.637Z,6.70
2022-12-23T08:11:45.368Z,6.70
2022-12-23T08:14:12.105Z,6.60
2022-12-23T08:16:43.624Z,6.60
2022-12-23T08:19:10.927Z,6.60
2022-12-23T08:21:37.650Z,6.70
2022-12-23T08:24:04.410Z,6.70
2022-12-23T08:26:33.039Z,6.70
2022-12-23T08:29:00.490Z,6.70
2022-12-23T08:31:32.088Z,6.70
2022-12-23T08:34:00.130Z,6.70
2022-12-23T08:36:30.589Z,6.70
2022-12-23T08:38:59.133Z,6.70
2022-12-23T08:41:29.386Z,6.70
2022-12-23T08:43:56.549Z,6.70
2022-12-23T08:46:24.114Z,6.60
2022-12-23T08:48:51.271Z,6.60
2022-12-23T08:51:20.537Z,6.60
2022-12-23T08:53:48.132Z,6.70
2022-12-23T08:56:20.383Z,6.70
2022-12-23T08:58:48.635Z,6.60
2022-12-23T09:01:17.733Z,6.60
2022-12-23T09:03:45.173Z,6.70
2022-12-23T09:06:15.431Z,6.70
2022-12-23T09:08:42.896Z,6.70
2022-12-23T09:11:14.773Z,6.70
2022-12-23T09:13:41.840Z,6.90
2022-12-23T09:16:09.247Z,6.80
2022-12-23T09:18:37.081Z,6.80
2022-12-23T09:21:11.087Z,6.80
2022-12-23T09:23:37.800Z,6.80
2022-12-23T09:26:05.854Z,6.80
2022-12-23T09:28:32.557Z,6.90
2022-12-23T09:31:07.082Z,6.90
2022-12-23T09:33:33.866Z,6.80
2022-12-23T09:36:01.422Z,6.90
2022-12-23T09:38:28.033Z,6.90
2022-12-23T09:41:27.513Z,6.90
2022-12-23T09:44:14.461Z,6.90
2022-12-23T09:46:51.115Z,6.90
2022-12-23T09:49:19.831Z,6.90
2022-12-23T09:51:47.271Z,6.90
2022-12-23T09:54:24.455Z,6.90
2022-12-23T09:57:15.266Z,6.80
2022-12-23T09:59:44.948Z,6.80
2022-12-23T10:02:19.543Z,6.90
2022-12-23T10:05:07.178Z,6.90
2022-12-23T10:07:53.531Z,6.90
2022-12-23T10:10:40.565Z,6.90
2022-12-23T10:13:30.417Z,7.00
2022-12-23T10:16:03.355Z,6.90
2022-12-23T10:18:58.049Z,7.00
2022-12-23T10:21:43.721Z,7.00
2022-12-23T10:24:25.356Z,7.10
2022-12-23T10:27:02.685Z,7.10
2022-12-23T10:29:33.779Z,7.10
2022-12-23T10:32:19.048Z,7.10
2022-12-23T10:34:59.549Z,7.00
2022-12-23T10:37:42.215Z,7.10
2022-12-23T10:40:17.731Z,7.10
2022-12-23T10:43:09.304Z,7.20
2022-12-23T10:45:51.508Z,7.20
2022-12-23T10:48:36.747Z,7.20
2022-12-23T10:51:12.714Z,7.20
2022-12-23T10:54:20.324Z,7.30
2022-12-23T10:56:47.408Z,7.30
2022-12-23T10:59:16.363Z,7.30
2022-12-23T11:01:48.527Z,7.30
2022-12-23T11:04:19.002Z,7.40
2022-12-23T11:07:10.720Z,7.40
2022-12-23T11:09:45.754Z,7.50
2022-12-23T11:12:13.889Z,7.50
2022-12-23T11:14:52.237Z,7.50
2022-12-23T11:17:21.844Z,7.40
2022-12-23T11:20:07.091Z,7.40
2022-12-23T11:22:33.734Z,7.40
2022-12-23T11:25:18.105Z,7.40
2022-12-23T11:27:45.930Z,7.40
2022-12-23T11:30:19.648Z,7.40
2022-12-23T11:32:46.488Z,7.40
2022-12-23T11:35:31.635Z,7.40
2022-12-23T11:38:00.679Z,7.50
2022-12-23T11:40:37.242Z,7.50
2022-12-23T11:43:15.822Z,7.60
2022-12-23T11:45:42.455Z,7.60
2022-12-23T11:48:29.556Z,7.70
2022-12-23T11:51:03.961Z,7.70
2022-12-23T11:53:31.406Z,7.70
2022-12-23T11:56:01.024Z,7.60
2022-12-23T11:58:29.707Z,7.60
2022-12-23T12:00:59.627Z,7.70
2022-12-23T12:03:34.264Z,7.60
2022-12-23T12:06:03.248Z,7.50
2022-12-23T12:08:36.931Z,7.60
2022-12-23T12:11:14.665Z,7.60
2022-12-23T12:13:43.384Z,7.70
2022-12-23T12:16:28.315Z,7.70
2022-12-23T12:19:01.528Z,7.70
2022-12-23T12:21:31.357Z,7.70
2022-12-23T12:24:20.280Z,7.70
2022-12-23T12:26:52.349Z,7.80
2022-12-23T12:29:33.072Z,7.80
2022-12-23T12:32:01.511Z,7.80
2022-12-23T12:34:54.796Z,7.90
2022-12-23T12:37:43.958Z,8.00
2022-12-23T12:40:16.663Z,8.00
2022-12-23T12:42:48.771Z,8.00
2022-12-23T12:45:25.006Z,8.10
2022-12-23T12:48:22.308Z,8.10
2022-12-23T12:51:14.271Z,8.10
2022-12-23T12:54:05.874Z,8.10
2022-12-23T12:56:46.326Z,8.10
2022-12-23T12:59:19.576Z,8.10
2022-12-23T13:01:53.073Z,8.20
2022-12-23T13:04:45.916Z,8.20
2022-12-23T13:07:37.343Z,8.20
2022-12-23T13:10:31.516Z,8.30
2022-12-23T13:13:42.783Z,8.30
2022-12-23T13:16:21.412Z,8.40
2022-12-23T13:19:00.471Z,8.40
2022-12-23T13:21:38.055Z,8.40
2022-12-23T13:24:13.966Z,8.30
2022-12-23T13:26:46.101Z,8.40
2022-12-23T13:29:27.696Z,8.40
2022-12-23T13:32:03.217Z,8.40
2022-12-23T13:34:45.951Z,8.40
2022-12-23T13:37:42.742Z,8.40
2022-12-23T13:40:37.122Z,8.50
2022-12-23T13:43:11.649Z,8.40
2022-12-23T13:45:40.278Z,8.40
2022-12-23T13:48:53.714Z,8.50
2022-12-23T13:51:39.820Z,8.50
2022-12-23T13:54:14.738Z,8.50
2022-12-23T13:56:57.840Z,8.50
2022-12-23T13:59:38.423Z,8.50
2022-12-23T14:02:33.919Z,8.50
2022-12-23T14:05:00.586Z,8.50
2022-12-23T14:07:30.360Z,8.50
2022-12-23T14:10:08.875Z,8.50
2022-12-23T14:12:39.391Z,8.50
2022-12-23T14:15:17.994Z,8.50
2022-12-23T14:18:02.735Z,8.50
2022-12-23T14:20:55.117Z,8.50
2022-12-23T14:23:39.617Z,8.50
2022-12-23T14:26:43.800Z,8.50
2022-12-23T14:29:28.547Z,8.50
2022-12-23T14:31:57.638Z,8.50
2022-12-23T14:34:31.522Z,8.50
2022-12-23T14:37:27.179Z,8.50
2022-12-23T14:39:53.864Z,8.50
2022-12-23T14:42:42.064Z,8.40
2022-12-23T14:45:33.626Z,8.50
2022-12-23T14:48:00.487Z,8.50
2022-12-23T14:50:36.010Z,8.50
2022-12-23T14:53:24.581Z,8.40
2022-12-23T14:56:07.828Z,8.30
2022-12-23T14:58:52.809Z,8.40
2022-12-23T15:01:41.688Z,8.40
2022-12-23T15:04:08.982Z,8.40
2022-12-23T15:06:39.551Z,8.40
2022-12-23T15:09:08.425Z,8.30
2022-12-23T15:11:36.891Z,8.30
2022-12-23T15:14:09.278Z,8.30
2022-12-23T15:16:39.639Z,8.30
2022-12-23T15:19:27.039Z,8.40
2022-12-23T15:22:19.914Z,8.30
2022-12-23T15:24:49.087Z,8.40
2022-12-23T15:27:29.349Z,8.40
2022-12-23T15:29:57.081Z,8.30
2022-12-23T15:32:25.623Z,8.40
2022-12-23T15:34:57.773Z,8.40
2022-12-23T15:37:30.403Z,8.30
2022-12-23T15:40:04.889Z,8.30
2022-12-23T15:42:38.228Z,8.30
2022-12-23T15:45:22.980Z,8.40
2022-12-23T15:47:50.589Z,8.40
2022-12-23T15:50:18.733Z,8.40
2022-12-23T15:52:48.562Z,8.40
2022-12-23T15:55:30.853Z,8.40
2022-12-23T15:57:59.258Z,8.30
2022-12-23T16:00:27.619Z,8.30
2022-12-23T16:03:02.368Z,8.30
2022-12-23T16:05:32.946Z,8.30
2022-12-23T16:08:08.511Z,8.30
2022-12-23T16:10:35.300Z,8.30
2022-12-23T16:13:01.950Z,8.30
2022-12-23T16:15:30.281Z,8.30
2022-12-23T16:18:21.929Z,8.30
2022-12-23T16:20:53.316Z,8.20
2022-12-23T16:23:21.170Z,8.20
2022-12-23T16:25:50.886Z,8.20
2022-12-23T16:28:26.244Z,8.20
2022-12-23T16:30:58.031Z,8.20
2022-12-23T16:33:49.962Z,8.20
2022-12-23T16:36:17.479Z,8.30
2022-12-23T16:38:44.248Z,8.20
2022-12-23T16:41:10.886Z,8.20
2022-12-23T16:43:37.439Z,8.20
2022-12-23T16:46:04.585Z,8.20
2022-12-23T16:48:40.483Z,8.20
2022-12-23T16:51:14.801Z,8.20
2022-12-23T16:53:41.401Z,8.20
2022-12-23T16:56:13.775Z,8.20
2022-12-23T16:58:40.664Z,8.10
2022-12-23T17:01:17.347Z,8.10
2022-12-23T17:03:44.339Z,8.10
2022-12-23T17:06:15.506Z,8.10
2022-12-23T17:08:42.556Z,8.00
2022-12-23T17:11:41.119Z,8.10
2022-12-23T17:14:15.865Z,8.00
2022-12-23T17:16:42.919Z,8.10
2022-12-23T17:19:09.564Z,8.10
2022-12-23T17:21:37.618Z,8.00
2022-12-23T17:24:24.729Z,8.00
2022-12-23T17:26:51.860Z,8.00
2022-12-23T17:29:18.780Z,8.00
2022-12-23T17:31:48.375Z,7.90
2022-12-23T17:34:23.354Z,7.90
2022-12-23T17:36:51.153Z,7.90
2022-12-23T17:39:18.873Z,7.90
2022-12-23T17:41:46.015Z,7.90
2022-12-23T17:44:15.261Z,7.90
2022-12-23T17:46:42.453Z,7.90
2022-12-23T17:49:09.206Z,7.90
2022-12-23T17:51:35.861Z,7.90
2022-12-23T17:54:04.383Z,7.90
2022-12-23T17:56:31.062Z,7.90
2022-12-23T17:58:57.993Z,7.90
2022-12-23T18:01:31.078Z,7.90
2022-12-23T18:03:59.662Z,7.90
2022-12-23T18:06:28.950Z,7.90
2022-12-23T18:08:58.817Z,7.80
2022-12-23T18:11:38.633Z,7.90
2022-12-23T18:14:05.202Z,7.80
2022-12-23T18:16:32.049Z,7.80
2022-12-23T18:18:58.749Z,7.80
2022-12-23T18:21:28.118Z,7.80
2022-12-23T18:23:57.664Z,7.80
2022-12-23T18:26:25.047Z,7.80
2022-12-23T18:28:53.867Z,7.70
2022-12-23T18:31:23.065Z,7.80
2022-12-23T18:33:51.632Z,7.80
2022-12-23T18:36:24.944Z,7.80
2022-12-23T18:38:52.519Z,7.80
2022-12-23T18:41:20.205Z,7.80
2022-12-23T18:43:47.004Z,7.80
2022-12-23T18:46:13.689Z,7.80
2022-12-23T18:48:40.368Z,7.80
2022-12-23T18:51:07.085Z,7.80
2022-12-23T18:53:33.803Z,7.80
2022-12-23T18:56:00.490Z,7.80
2022-12-23T18:58:27.093Z,7.80
2022-12-23T19:00:54.166Z,7.70
2022-12-23T19:03:29.109Z,7.80
2022-12-23T19:05:57.839Z,7.80
2022-12-23T19:08:27.211Z,7.80
2022-12-23T19:10:56.543Z,7.80
2022-12-23T19:13:23.305Z,7.80
2022-12-23T19:15:50.053Z,7.80
2022-12-23T19:18:19.456Z,7.80
2022-12-23T19:20:47.577Z,7.80
2022-12-23T19:23:15.113Z,7.80
2022-12-23T19:25:49.269Z,7.80
2022-12-23T19:28:21.543Z,7.90
2022-12-23T19:30:48.475Z,7.90
2022-12-23T19:33:15.436Z,7.90
2022-12-23T19:35:42.748Z,7.90
2022-12-23T19:38:09.305Z,7.80
2022-12-23T19:40:36.145Z,7.90
2022-12-23T19:43:03.354Z,7.80
2022-12-23T19:45:29.884Z,7.80
2022-12-23T19:47:56.500Z,7.80
2022-12-23T19:50:23.287Z,7.80
2022-12-23T19:52:54.697Z,7.80
2022-12-23T19:55:21.367Z,7.80
2022-12-23T19:57:48.095Z,7.80
2022-12-23T20:00:15.813Z,7.80
2022-12-23T20:02:43.268Z,7.80
2022-12-23T20:05:10.080Z,7.70
2022-12-23T20:07:36.750Z,7.70
2022-12-23T20:10:04.965Z,7.70
2022-12-23T20:12:31.581Z,7.70
2022-12-23T20:14:58.190Z,7.70
2022-12-23T20:17:24.765Z,7.70
2022-12-23T20:19:51.609Z,7.70
2022-12-23T20:22:18.179Z,7.70
2022-12-23T20:24:45.008Z,7.70
2022-12-23T20:27:13.923Z,7.60
2022-12-23T20:29:42.290Z,7.60
2022-12-23T20:32:08.925Z,7.70
2022-12-23T20:34:39.492Z,7.70
2022-12-23T20:37:07.129Z,7.70
2022-12-23T20:39:34.131Z,7.70
2022-12-23T20:42:00.712Z,7.70
2022-12-23T20:44:36.617Z,7.60
2022-12-23T20:47:05.647Z,7.60
2022-12-23T20:49:32.711Z,7.60
2022-12-23T20:51:59.542Z,7.60
2022-12-23T20:54:32.136Z,7.50
2022-12-23T20:57:00.675Z,7.50
2022-12-23T20:59:27.310Z,7.50
2022-12-23T21:01:54.665Z,7.40
2022-12-23T21:04:22.640Z,7.50
2022-12-23T21:06:49.702Z,7.40
2022-12-23T21:09:16.374Z,7.40
2022-12-23T21:11:45.665Z,7.30
2022-12-23T21:14:13.577Z,7.30
2022-12-23T21:16:40.765Z,7.30
2022-12-23T21:19:09.381Z,7.30
2022-12-23T21:21:36.302Z,7.20
2022-12-23T21:24:04.282Z,7.20
2022-12-23T21:26:32.871Z,7.10
2022-12-23T21:29:01.330Z,7.10
2022-12-23T21:31:29.982Z,7.00
2022-12-23T21:33:57.615Z,7.00
2022-12-23T21:36:27.067Z,7.00
2022-12-23T21:38:54.166Z,6.90
2022-12-23T21:41:23.504Z,6.90
2022-12-23T21:43:50.852Z,6.80
2022-12-23T21:46:20.274Z,6.80
2022-12-23T21:48:47.748Z,6.80
2022-12-23T21:51:30.349Z,6.80
2022-12-23T21:54:01.583Z,6.80
2022-12-23T21:56:29.938Z,6.80
2022-12-23T21:59:01.311Z,6.80
2022-12-23T22:01:28.778Z,6.70
2022-12-23T22:03:56.529Z,6.80
2022-12-23T22:06:26.080Z,6.70
2022-12-23T22:08:53.855Z,6.70
2022-12-23T22:11:23.359Z,6.70
2022-12-23T22:13:50.641Z,6.70
2022-12-23T22:16:21.277Z,6.70
2022-12-23T22:18:48.960Z,6.70
2022-12-23T22:21:18.935Z,6.70
2022-12-23T22:23:49.063Z,6.70
2022-12-23T22:26:24.233Z,6.70
2022-12-23T22:28:56.634Z,6.70
2022-12-23T22:31:45.537Z,6.70
2022-12-23T22:34:18.725Z,6.60
2022-12-23T22:36:45.754Z,6.60
2022-12-23T22:39:20.449Z,6.60
2022-12-23T22:41:48.127Z,6.60
2022-12-23T22:44:15.216Z,6.60
2022-12-23T22:46:42.486Z,6.60
2022-12-23T22:49:12.980Z,6.60
2022-12-23T22:51:40.389Z,6.60
2022-12-23T22:54:07.352Z,6.50
2022-12-23T22:56:33.946Z,6.60
2022-12-23T22:59:00.540Z,6.60
2022-12-23T23:01:27.119Z,6.60
2022-12-23T23:03:57.917Z,6.60
2022-12-23T23:06:26.913Z,6.60
2022-12-23T23:08:54.530Z,6.60
2022-12-23T23:11:21.698Z,6.60
2022-12-23T23:13:48.663Z,6.60
2022-12-23T23:16:15.330Z,6.60
2022-12-23T23:18:41.983Z,6.60
2022-12-23T23:21:09.353Z,6.60
2022-12-23T23:23:35.985Z,6.50
2022-12-23T23:26:02.941Z,6.60
2022-12-23T23:28:29.506Z,6.50
2022-12-23T23:31:23.648Z,6.50
2022-12-23T23:33:42.907Z,6.40
2022-12-23T23:36:09.808Z,6.40
2022-12-23T23:38:36.480Z,6.30
2022-12-23T23:41:03.259Z,6.30
2022-12-23T23:43:29.918Z,6.30
2022-12-23T23:45:56.722Z,6.30
2022-12-23T23:48:23.355Z,6.40
2022-12-23T23:50:49.956Z,6.30
2022-12-23T23:53:17.135Z,6.30
2022-12-23T23:55:43.774Z,6.30
2022-12-23T23:58:11.271Z,6.30
